Time;durP1;ratioP1;P1;durP2;ratioP2;P2;SDS_P1;SDS_P2;PMS_P1;PMS_P2;Temp;Humidity;BMP_temperature;BMP_pressure;BME280_temperature;BME280_humidity;BME280_pressure;Samples;Min_cycle;Max_cycle;Signal;HPM_P1;HPM_P2
2023/01/18 00:01:07;;;;;;;2.08;1.30;;;2.30;99.90;;;;;;5011272;28;20041;-75
2023/01/18 00:03:34;;;;;;;3.90;1.80;;;2.20;99.90;;;;;;5008677;28;20452;-74
2023/01/18 00:06:07;;;;;;;3.58;1.77;;;2.20;99.90;;;;;;5009575;28;20029;-75
2023/01/18 00:08:34;;;;;;;3.25;2.40;;;2.20;99.90;;;;;;5005102;28;20045;-74
2023/01/18 00:11:14;;;;;;;6.20;2.13;;;2.10;99.90;;;;;;5010944;28;20371;-74
2023/01/18 00:13:40;;;;;;;4.35;2.03;;;2.10;99.90;;;;;;5020062;28;20034;-75
2023/01/18 00:16:20;;;;;;;7.20;2.33;;;2.10;99.90;;;;;;5026044;28;20030;-75
2023/01/18 00:18:55;;;;;;;3.70;1.33;;;2.10;99.90;;;;;;5020040;28;20498;-75
2023/01/18 00:21:21;;;;;;;2.83;1.92;;;2.10;99.90;;;;;;5009540;28;20052;-75
2023/01/18 00:23:47;;;;;;;3.03;2.13;;;2.10;99.90;;;;;;5020414;28;20030;-75
2023/01/18 00:26:13;;;;;;;3.25;2.22;;;2.00;99.90;;;;;;5017739;28;20091;-75
2023/01/18 00:28:40;;;;;;;3.90;2.38;;;2.10;99.90;;;;;;5020412;28;20041;-74
2023/01/18 00:31:15;;;;;;;2.47;1.50;;;2.10;99.90;;;;;;5010607;28;20029;-75
2023/01/18 00:33:47;;;;;;;2.25;1.60;;;2.20;99.90;;;;;;5020291;28;20034;-75
2023/01/18 00:36:14;;;;;;;5.15;1.63;;;2.10;99.90;;;;;;5010520;28;20029;-75
2023/01/18 00:38:40;;;;;;;3.78;2.10;;;2.00;99.90;;;;;;5004918;28;20112;-75
2023/01/18 00:41:06;;;;;;;7.28;2.92;;;1.90;99.90;;;;;;5010506;28;20481;-76
2023/01/18 00:43:40;;;;;;;4.40;2.47;;;1.90;99.90;;;;;;5024637;28;20042;-76
2023/01/18 00:46:24;;;;;;;3.75;1.85;;;1.90;99.90;;;;;;5024839;28;20405;-75
2023/01/18 00:48:51;;;;;;;2.25;1.48;;;1.90;99.90;;;;;;5020932;28;20034;-75
2023/01/18 00:51:21;;;;;;;7.53;3.08;;;1.90;99.90;;;;;;5008661;28;20081;-75
2023/01/18 00:53:48;;;;;;;1.50;1.17;;;1.80;99.90;;;;;;5011786;28;20124;-75
2023/01/18 00:56:18;;;;;;;4.07;2.30;;;1.90;99.90;;;;;;5030150;28;20025;-74
2023/01/18 00:58:44;;;;;;;3.08;1.70;;;1.90;99.90;;;;;;5023838;28;20148;-75
2023/01/18 01:01:12;;;;;;;2.10;1.15;;;1.90;99.90;;;;;;5029291;28;20087;-75
2023/01/18 01:06:43;;;;;;;4.50;1.65;;;1.90;99.90;;;;;;5011871;28;20075;-75
2023/01/18 01:09:22;;;;;;;6.80;2.05;;;1.80;99.90;;;;;;5008439;28;20041;-75
2023/01/18 01:28:22;;;;;;;3.30;2.08;;;1.80;99.90;;;;;;5020597;28;20038;-75
2023/01/18 01:30:48;;;;;;;2.47;1.50;;;1.70;99.90;;;;;;5013399;28;20033;-74
2023/01/18 01:33:16;;;;;;;3.22;1.75;;;1.80;99.90;;;;;;5008196;28;20038;-75
2023/01/18 01:35:41;;;;;;;3.92;2.03;;;1.70;99.90;;;;;;5013519;28;20076;-76
2023/01/18 01:38:07;;;;;;;5.63;1.73;;;1.70;99.90;;;;;;5007792;28;20478;-75
2023/01/18 01:40:33;;;;;;;3.58;2.03;;;1.70;99.90;;;;;;5013435;28;20049;-76
2023/01/18 01:42:59;;;;;;;3.42;2.65;;;1.70;99.90;;;;;;5012406;28;20136;-75
2023/01/18 01:45:29;;;;;;;4.07;1.58;;;1.60;99.90;;;;;;5007311;28;20041;-76
2023/01/18 01:47:56;;;;;;;3.70;2.20;;;1.70;99.90;;;;;;5008974;28;20108;-75
2023/01/18 01:50:34;;;;;;;8.40;2.90;;;1.70;99.90;;;;;;5013285;28;20026;-75
2023/01/18 01:53:01;;;;;;;5.93;2.22;;;1.70;99.90;;;;;;5022263;28;20141;-76
2023/01/18 01:55:32;;;;;;;7.18;2.17;;;1.80;99.90;;;;;;5028299;28;20393;-76
2023/01/18 01:58:16;;;;;;;4.35;1.80;;;1.80;99.90;;;;;;5007392;28;20398;-75
2023/01/18 02:00:43;;;;;;;3.40;1.58;;;1.80;99.90;;;;;;5026397;28;20446;-76
2023/01/18 02:03:12;;;;;;;4.45;2.42;;;1.80;99.90;;;;;;5022369;28;20026;-76
2023/01/18 02:05:51;;;;;;;3.42;2.17;;;1.80;99.90;;;;;;5003449;28;20022;-75
2023/01/18 02:08:21;;;;;;;2.92;1.80;;;1.80;99.90;;;;;;5001437;28;20070;-75
2023/01/18 02:10:51;;;;;;;4.28;1.65;;;1.80;99.90;;;;;;5003312;28;20701;-75
2023/01/18 02:13:20;;;;;;;2.03;1.33;;;1.80;99.90;;;;;;5000453;28;20094;-76
2023/01/18 02:16:30;;;;;;;5.03;1.58;;;1.80;99.90;;;;;;5021505;28;20026;-76
2023/01/18 02:19:36;;;;;;;5.07;2.03;;;1.80;99.90;;;;;;5021185;28;20057;-76
2023/01/18 02:22:34;;;;;;;8.82;2.05;;;1.80;99.90;;;;;;5012656;28;20033;-75
2023/01/18 02:25:54;;;;;;;1.88;1.35;;;1.90;99.90;;;;;;5022655;28;20061;-75
2023/01/18 02:28:32;;;;;;;3.58;1.85;;;1.80;99.90;;;;;;5010277;28;20038;-75
2023/01/18 02:31:22;;;;;;;6.88;1.73;;;1.80;99.90;;;;;;5027663;28;20040;-75
2023/01/18 02:34:05;;;;;;;2.50;1.83;;;1.80;99.90;;;;;;5021252;28;20494;-75
2023/01/18 02:37:03;;;;;;;7.20;2.05;;;1.80;99.90;;;;;;5006341;28;20567;-75
2023/01/18 02:39:57;;;;;;;5.15;1.70;;;1.80;99.90;;;;;;5020381;28;20030;-75
2023/01/18 02:48:22;;;;;;;2.00;1.35;;;1.80;99.90;;;;;;4999759;28;20037;-75
2023/01/18 02:50:48;;;;;;;3.00;2.13;;;1.80;99.90;;;;;;5017844;28;20059;-76
2023/01/18 02:53:14;;;;;;;2.08;1.63;;;1.80;99.90;;;;;;5001744;28;20490;-75
2023/01/18 02:55:58;;;;;;;4.10;1.90;;;1.80;99.90;;;;;;5006147;28;20038;-76
2023/01/18 02:58:38;;;;;;;2.83;1.45;;;1.80;99.90;;;;;;5019640;28;20841;-75
2023/01/18 03:01:46;;;;;;;3.28;1.67;;;1.80;99.90;;;;;;5019589;28;20070;-75
2023/01/18 03:04:27;;;;;;;2.83;1.60;;;1.80;99.90;;;;;;5010254;28;20042;-75
2023/01/18 03:07:21;;;;;;;2.08;1.38;;;1.80;99.90;;;;;;5011605;28;20044;-75
2023/01/18 03:09:47;;;;;;;2.72;1.40;;;1.80;99.90;;;;;;5010847;28;20041;-75
2023/01/18 03:15:15;;;;;;;1.92;1.17;;;1.80;99.90;;;;;;5026579;28;20047;-75
2023/01/18 03:17:49;;;;;;;8.27;2.10;;;1.70;99.90;;;;;;5028611;28;20040;-74
2023/01/18 03:20:25;;;;;;;2.47;1.58;;;1.60;99.90;;;;;;5013537;28;20491;-74
2023/01/18 03:25:56;;;;;;;1.23;1.02;;;1.60;99.90;;;;;;5013079;28;20385;-74
2023/01/18 03:34:45;;;;;;;6.10;2.13;;;1.70;99.90;;;;;;5020067;28;20030;-74
2023/01/18 03:37:38;;;;;;;2.40;1.15;;;1.70;99.90;;;;;;5009619;28;20026;-74
2023/01/18 03:40:16;;;;;;;2.42;1.63;;;1.70;99.90;;;;;;5017683;28;20029;-75
2023/01/18 03:43:19;;;;;;;2.65;1.48;;;1.70;99.90;;;;;;5009387;28;20068;-75
2023/01/18 03:45:48;;;;;;;3.38;2.13;;;1.80;99.90;;;;;;5006805;28;20029;-75
2023/01/18 03:48:14;;;;;;;3.92;2.10;;;1.70;99.90;;;;;;5008418;28;20397;-74
2023/01/18 03:51:10;;;;;;;2.83;1.50;;;1.70;99.90;;;;;;5014501;28;20029;-74
2023/01/18 03:54:03;;;;;;;4.68;2.28;;;1.70;99.90;;;;;;5010615;28;20503;-75
2023/01/18 03:56:49;;;;;;;1.63;1.00;;;1.80;99.90;;;;;;5016259;28;20125;-75
2023/01/18 03:59:15;;;;;;;1.48;0.88;;;1.60;99.90;;;;;;5020906;28;20394;-75
2023/01/18 04:01:43;;;;;;;5.20;2.25;;;1.60;99.90;;;;;;5009539;28;20052;-75
2023/01/18 04:04:10;;;;;;;3.70;1.77;;;1.60;99.90;;;;;;5015900;28;20029;-74
2023/01/18 04:06:35;;;;;;;2.60;1.85;;;1.60;99.90;;;;;;5009354;28;20045;-75
2023/01/18 04:09:01;;;;;;;4.30;1.92;;;1.60;99.90;;;;;;5015251;28;20030;-75
2023/01/18 04:11:27;;;;;;;3.17;2.38;;;1.60;99.90;;;;;;5009031;28;20025;-74
2023/01/18 04:13:53;;;;;;;1.48;0.85;;;1.60;99.90;;;;;;5013961;28;20076;-75
2023/01/18 04:16:18;;;;;;;3.40;2.38;;;1.60;99.90;;;;;;5017929;28;20034;-74
2023/01/18 04:18:44;;;;;;;3.45;1.42;;;1.60;99.90;;;;;;5009976;28;20030;-75
2023/01/18 04:21:10;;;;;;;1.70;1.10;;;1.60;99.90;;;;;;5010565;28;20038;-75
2023/01/18 04:23:36;;;;;;;2.47;1.35;;;1.60;99.90;;;;;;5009798;28;20037;-74
2023/01/18 04:26:02;;;;;;;5.30;1.80;;;1.60;99.90;;;;;;5013884;28;20128;-75
2023/01/18 04:28:27;;;;;;;4.85;1.73;;;1.60;99.90;;;;;;5013769;28;20041;-75
2023/01/18 04:30:55;;;;;;;2.38;1.42;;;1.60;99.90;;;;;;5016282;28;20072;-75
2023/01/18 04:33:23;;;;;;;6.07;2.83;;;1.60;99.90;;;;;;5013144;28;20030;-74
2023/01/18 04:35:49;;;;;;;2.75;1.05;;;1.60;99.90;;;;;;5014532;28;20029;-74
2023/01/18 04:38:15;;;;;;;1.65;1.42;;;1.60;99.90;;;;;;5012005;28;20037;-74
2023/01/18 04:40:41;;;;;;;2.08;1.20;;;1.60;99.90;;;;;;5017759;28;20038;-74
2023/01/18 04:43:07;;;;;;;3.08;1.23;;;1.60;99.90;;;;;;5013617;28;20034;-75
2023/01/18 04:45:33;;;;;;;5.30;1.65;;;1.80;99.90;;;;;;5002274;28;20056;-76
2023/01/18 04:47:59;;;;;;;1.20;0.95;;;1.80;99.90;;;;;;5013465;28;20061;-75
2023/01/18 04:50:24;;;;;;;1.00;0.80;;;1.80;99.90;;;;;;5003271;28;20037;-75
2023/01/18 04:52:50;;;;;;;2.42;1.30;;;1.80;99.90;;;;;;5013438;28;20037;-75
2023/01/18 04:55:16;;;;;;;4.45;1.65;;;1.70;99.90;;;;;;5013936;28;20042;-75
2023/01/18 04:57:43;;;;;;;2.00;1.10;;;1.70;99.90;;;;;;5013112;28;20024;-75
2023/01/18 05:00:11;;;;;;;2.97;2.38;;;1.70;99.90;;;;;;5005313;28;20049;-75
2023/01/18 05:02:37;;;;;;;2.63;1.35;;;1.70;99.90;;;;;;5012257;28;20022;-75
2023/01/18 05:05:04;;;;;;;3.83;1.38;;;1.60;99.90;;;;;;5005766;28;20363;-75
2023/01/18 05:07:32;;;;;;;2.25;1.20;;;1.60;99.90;;;;;;4995726;28;20506;-75
2023/01/18 05:09:59;;;;;;;4.25;1.42;;;1.60;99.90;;;;;;5002098;28;20041;-75
2023/01/18 05:12:26;;;;;;;4.30;2.05;;;1.60;99.90;;;;;;5013747;28;20607;-75
2023/01/18 05:14:52;;;;;;;6.28;1.23;;;1.50;99.90;;;;;;5019908;28;20034;-75
2023/01/18 05:17:17;;;;;;;3.95;1.75;;;1.50;99.90;;;;;;5013571;28;20077;-75
2023/01/18 05:19:45;;;;;;;7.35;3.90;;;1.50;99.90;;;;;;5012560;28;20034;-75
2023/01/18 05:22:11;;;;;;;2.08;1.67;;;1.50;99.90;;;;;;5012654;28;20034;-75
2023/01/18 05:24:37;;;;;;;4.05;2.10;;;1.50;99.90;;;;;;5014841;28;20044;-75
2023/01/18 05:27:03;;;;;;;5.35;1.90;;;1.50;99.90;;;;;;5013101;28;20025;-75
2023/01/18 05:29:29;;;;;;;2.63;1.50;;;1.50;99.90;;;;;;5010173;28;20087;-78
2023/01/18 05:31:55;;;;;;;5.53;2.30;;;1.50;99.90;;;;;;5004665;28;20175;-76
2023/01/18 05:34:21;;;;;;;5.75;1.42;;;1.60;99.90;;;;;;5016514;28;20038;-75
2023/01/18 05:36:47;;;;;;;1.45;1.02;;;1.60;99.90;;;;;;5010021;28;20038;-73
2023/01/18 05:39:13;;;;;;;3.72;2.00;;;1.60;99.90;;;;;;4994641;28;20490;-74
2023/01/18 05:41:39;;;;;;;2.67;2.05;;;1.60;99.90;;;;;;4985953;28;20047;-75
2023/01/18 05:44:05;;;;;;;2.63;1.63;;;1.70;99.90;;;;;;4998565;28;20039;-75
2023/01/18 05:46:31;;;;;;;2.83;1.98;;;1.70;99.90;;;;;;4986095;28;20132;-75
2023/01/18 05:48:57;;;;;;;1.17;0.80;;;1.70;99.90;;;;;;5011792;28;20548;-75
2023/01/18 05:51:23;;;;;;;2.20;1.45;;;1.70;99.90;;;;;;5013097;28;20501;-75
2023/01/18 05:53:49;;;;;;;4.28;1.95;;;1.70;99.90;;;;;;5015654;28;20038;-75
2023/01/18 05:56:15;;;;;;;3.30;1.90;;;1.70;99.90;;;;;;5011283;28;20109;-75
2023/01/18 05:58:43;;;;;;;3.22;1.45;;;1.70;99.90;;;;;;5011994;28;20042;-76
2023/01/18 06:01:09;;;;;;;3.63;1.85;;;1.80;99.90;;;;;;5015438;28;20036;-75
2023/01/18 06:03:35;;;;;;;2.60;1.45;;;1.80;99.90;;;;;;5011689;28;20026;-75
2023/01/18 06:06:01;;;;;;;2.42;1.58;;;1.80;99.90;;;;;;5012348;28;20029;-76
2023/01/18 06:08:27;;;;;;;3.00;1.55;;;1.80;99.90;;;;;;5014110;28;20498;-73
2023/01/18 06:10:55;;;;;;;4.50;1.95;;;1.80;99.90;;;;;;5005602;28;20061;-74
2023/01/18 06:13:22;;;;;;;2.60;1.08;;;1.70;99.90;;;;;;4999808;28;20030;-75
2023/01/18 06:15:48;;;;;;;2.13;1.50;;;1.60;99.90;;;;;;5014346;28;20109;-75
2023/01/18 06:18:14;;;;;;;2.63;1.38;;;1.70;99.90;;;;;;5011579;28;20230;-75
2023/01/18 06:20:39;;;;;;;1.42;1.27;;;1.70;99.90;;;;;;5011801;28;20061;-74
2023/01/18 06:23:05;;;;;;;2.15;1.40;;;1.70;99.90;;;;;;5011241;28;20061;-75
2023/01/18 06:25:31;;;;;;;9.93;1.60;;;1.70;99.90;;;;;;5012124;28;20045;-75
2023/01/18 06:27:58;;;;;;;3.67;1.98;;;1.60;99.90;;;;;;4993620;28;20030;-75
2023/01/18 06:30:25;;;;;;;11.43;2.38;;;1.50;99.90;;;;;;5015069;28;20033;-74
2023/01/18 06:32:50;;;;;;;1.65;1.50;;;1.60;99.90;;;;;;5011312;28;20025;-75
2023/01/18 06:35:16;;;;;;;2.08;1.35;;;1.60;99.90;;;;;;5011970;28;20076;-74
2023/01/18 06:37:44;;;;;;;3.47;1.60;;;1.60;99.90;;;;;;5011132;28;20034;-75
2023/01/18 06:40:10;;;;;;;3.53;1.80;;;1.60;99.90;;;;;;5011578;28;20088;-76
2023/01/18 06:42:36;;;;;;;5.70;2.42;;;1.60;99.90;;;;;;5011384;28;20402;-75
2023/01/18 06:45:02;;;;;;;3.90;2.20;;;1.60;99.90;;;;;;5011363;28;20060;-71
2023/01/18 06:47:27;;;;;;;3.50;2.42;;;1.50;99.90;;;;;;5010973;28;20037;-72
2023/01/18 06:49:54;;;;;;;8.85;3.80;;;1.50;99.90;;;;;;5011075;28;20087;-73
2023/01/18 06:52:19;;;;;;;2.05;1.77;;;1.50;99.90;;;;;;5011652;28;20037;-74
2023/01/18 06:54:45;;;;;;;16.73;2.30;;;1.60;99.90;;;;;;5001981;28;20038;-72
2023/01/18 06:57:11;;;;;;;4.20;1.90;;;1.60;99.90;;;;;;5009462;28;20033;-71
2023/01/18 06:59:38;;;;;;;2.88;1.65;;;1.70;99.90;;;;;;5011940;28;20034;-72
2023/01/18 07:02:04;;;;;;;15.02;1.40;;;1.70;99.90;;;;;;4995157;28;20060;-70
2023/01/18 07:04:36;;;;;;;3.65;2.22;;;1.70;99.90;;;;;;5001588;28;20499;-73
2023/01/18 07:07:02;;;;;;;6.20;2.28;;;1.70;99.90;;;;;;5008066;28;20782;-75
2023/01/18 07:09:28;;;;;;;2.70;1.42;;;1.70;99.90;;;;;;5011127;28;20033;-74
2023/01/18 07:11:53;;;;;;;7.28;2.13;;;1.70;99.90;;;;;;5010461;28;20446;-73
2023/01/18 07:14:20;;;;;;;2.83;1.67;;;1.70;99.90;;;;;;5009962;28;20125;-73
2023/01/18 07:16:46;;;;;;;1.73;1.05;;;1.70;99.90;;;;;;5010304;28;20493;-73
2023/01/18 07:19:11;;;;;;;4.20;2.38;;;1.70;99.90;;;;;;5007687;28;20060;-73
2023/01/18 07:21:38;;;;;;;3.65;1.50;;;1.70;99.90;;;;;;5011002;28;20061;-73
2023/01/18 07:24:04;;;;;;;2.47;1.15;;;1.70;99.90;;;;;;4988271;28;20030;-73
2023/01/18 07:26:30;;;;;;;2.17;1.25;;;1.80;99.90;;;;;;5007597;28;20080;-73
2023/01/18 07:28:56;;;;;;;4.68;1.42;;;1.90;99.90;;;;;;5005972;28;20034;-73
2023/01/18 07:31:23;;;;;;;4.22;1.42;;;1.90;99.90;;;;;;5004204;28;20033;-73
2023/01/18 07:33:51;;;;;;;2.85;1.38;;;1.90;99.90;;;;;;5004215;28;20026;-73
2023/01/18 07:36:17;;;;;;;11.23;2.28;;;1.80;99.90;;;;;;5009493;28;20077;-73
2023/01/18 07:38:43;;;;;;;2.50;1.70;;;1.90;99.90;;;;;;5008961;28;20030;-74
2023/01/18 07:41:15;;;;;;;3.13;1.75;;;1.90;99.90;;;;;;5007074;28;20053;-74
2023/01/18 07:43:43;;;;;;;2.08;1.20;;;1.90;99.90;;;;;;4994418;28;20098;-74
2023/01/18 07:46:12;;;;;;;3.80;2.08;;;1.80;99.90;;;;;;4995351;28;20409;-73
2023/01/18 07:48:38;;;;;;;2.03;1.45;;;1.90;99.90;;;;;;5010185;28;20036;-74
2023/01/18 07:51:07;;;;;;;4.50;1.90;;;2.00;99.90;;;;;;5009821;28;20034;-73
2023/01/18 07:53:35;;;;;;;7.60;1.52;;;2.00;99.90;;;;;;5001409;28;20033;-72
2023/01/18 07:56:09;;;;;;;10.13;2.45;;;2.00;99.90;;;;;;5010167;28;20500;-74
2023/01/18 07:58:36;;;;;;;3.92;1.35;;;2.00;99.90;;;;;;5014317;28;20041;-73
2023/01/18 08:01:08;;;;;;;2.55;1.55;;;2.10;99.90;;;;;;5013007;28;20030;-73
2023/01/18 08:03:35;;;;;;;2.17;1.42;;;2.10;99.90;;;;;;5014757;28;20092;-73
2023/01/18 08:06:04;;;;;;;3.05;1.90;;;2.10;99.90;;;;;;5010087;28;20041;-74
2023/01/18 08:08:30;;;;;;;3.80;1.48;;;2.10;99.90;;;;;;5015134;28;20037;-73
2023/01/18 08:10:58;;;;;;;2.75;1.58;;;2.20;99.90;;;;;;5010086;28;20490;-73
2023/01/18 08:13:25;;;;;;;2.45;1.15;;;2.20;99.90;;;;;;5015750;28;20042;-74
2023/01/18 08:15:53;;;;;;;3.83;2.15;;;2.20;99.90;;;;;;5009972;28;20033;-73
2023/01/18 08:18:18;;;;;;;7.35;3.70;;;2.20;99.90;;;;;;5016744;28;20033;-73
2023/01/18 08:20:46;;;;;;;2.30;1.45;;;2.30;99.90;;;;;;5005005;28;20037;-73
2023/01/18 08:23:12;;;;;;;2.65;1.63;;;2.30;99.90;;;;;;5009840;28;20030;-75
2023/01/18 08:25:38;;;;;;;2.25;1.05;;;2.30;99.90;;;;;;5005086;28;20034;-73
2023/01/18 08:28:04;;;;;;;5.93;2.03;;;2.40;99.90;;;;;;5017108;28;20033;-73
2023/01/18 08:30:35;;;;;;;7.57;1.40;;;2.40;99.90;;;;;;5008670;28;20034;-73
2023/01/18 08:33:02;;;;;;;12.65;3.20;;;2.40;99.90;;;;;;5007984;28;20521;-73
2023/01/18 08:35:33;;;;;;;9.13;2.10;;;2.40;99.90;;;;;;5009577;28;20041;-73
2023/01/18 08:38:00;;;;;;;2.10;1.17;;;2.30;99.90;;;;;;5002697;28;20032;-73
2023/01/18 08:40:27;;;;;;;1.10;0.80;;;2.40;99.90;;;;;;5009114;28;20034;-73
2023/01/18 08:43:02;;;;;;;5.45;2.20;;;2.40;99.90;;;;;;5009564;28;20033;-73
2023/01/18 08:45:28;;;;;;;2.40;1.45;;;2.30;99.90;;;;;;5004908;28;20088;-73
2023/01/18 08:47:59;;;;;;;5.55;1.00;;;2.30;99.90;;;;;;5006956;28;20033;-73
2023/01/18 08:50:26;;;;;;;2.22;1.30;;;2.30;99.90;;;;;;5008390;28;20105;-74
2023/01/18 08:52:52;;;;;;;2.15;1.38;;;2.30;99.90;;;;;;4997690;28;20033;-73
2023/01/18 08:55:20;;;;;;;2.60;1.48;;;2.30;99.90;;;;;;5009510;28;20044;-73
2023/01/18 08:57:47;;;;;;;1.05;0.82;;;2.30;99.90;;;;;;5009724;28;20038;-72
2023/01/18 09:00:14;;;;;;;3.03;1.15;;;2.40;99.90;;;;;;5011400;28;20044;-73
2023/01/18 09:02:40;;;;;;;2.17;1.08;;;2.40;99.90;;;;;;5009720;28;20160;-73
2023/01/18 09:05:06;;;;;;;3.17;1.80;;;2.40;99.90;;;;;;5009465;28;20577;-73
2023/01/18 09:07:33;;;;;;;4.25;1.45;;;2.40;99.90;;;;;;5009422;28;20034;-73
2023/01/18 09:09:58;;;;;;;2.50;1.30;;;2.40;99.90;;;;;;5009519;28;20387;-72
2023/01/18 09:12:24;;;;;;;2.38;1.15;;;2.30;99.90;;;;;;5012973;28;20030;-73
2023/01/18 09:14:50;;;;;;;2.25;1.13;;;2.40;99.90;;;;;;5027059;23;20122;-75
2023/01/18 09:17:18;;;;;;;1.90;1.30;;;2.40;99.90;;;;;;5012672;28;20026;-74
2023/01/18 09:19:44;;;;;;;1.48;0.85;;;2.40;99.90;;;;;;5012892;28;20038;-75
2023/01/18 09:22:11;;;;;;;2.03;1.15;;;2.50;99.90;;;;;;4971125;28;20116;-74
2023/01/18 09:24:37;;;;;;;1.45;1.15;;;2.50;99.90;;;;;;5007396;28;20029;-74
2023/01/18 09:27:05;;;;;;;1.02;0.75;;;2.60;99.90;;;;;;5013186;28;20443;-76
2023/01/18 09:29:31;;;;;;;1.35;0.93;;;2.50;99.90;;;;;;5012549;28;20072;-74
2023/01/18 09:31:58;;;;;;;1.30;1.02;;;2.60;99.90;;;;;;5013173;28;20053;-74
2023/01/18 09:34:24;;;;;;;1.30;1.08;;;2.60;99.90;;;;;;5012576;28;20371;-74
2023/01/18 09:36:51;;;;;;;1.02;0.75;;;2.70;99.90;;;;;;5012627;28;20103;-74
2023/01/18 09:39:19;;;;;;;3.72;1.67;;;2.80;99.90;;;;;;5012474;28;20057;-74
2023/01/18 09:41:56;;;;;;;5.50;1.50;;;2.80;99.90;;;;;;5012745;28;20049;-74
2023/01/18 09:44:34;;;;;;;3.45;0.98;;;2.80;99.90;;;;;;5012517;28;20393;-74
2023/01/18 09:47:16;;;;;;;1.50;0.98;;;2.90;99.90;;;;;;5002874;28;20577;-74
2023/01/18 09:49:53;;;;;;;1.70;1.25;;;3.00;99.90;;;;;;5019074;28;20041;-74
2023/01/18 09:52:19;;;;;;;4.72;2.03;;;3.00;99.90;;;;;;5005318;28;20029;-74
2023/01/18 09:55:27;;;;;;;3.13;1.45;;;3.00;99.90;;;;;;5009475;28;20041;-74
2023/01/18 09:58:49;;;;;;;14.38;1.55;;;3.00;99.90;;;;;;4997579;28;20052;-73
2023/01/18 10:01:20;;;;;;;2.08;1.75;;;3.00;99.90;;;;;;5011792;28;20092;-75
2023/01/18 10:04:16;;;;;;;3.55;1.98;;;3.00;99.90;;;;;;5011566;28;20042;-75
2023/01/18 10:07:11;;;;;;;2.67;1.58;;;3.00;99.90;;;;;;5001653;28;20026;-74
2023/01/18 10:09:54;;;;;;;5.38;1.85;;;3.00;99.90;;;;;;5009890;28;20030;-74
2023/01/18 10:12:42;;;;;;;3.35;1.48;;;3.10;99.90;;;;;;5003063;28;20046;-73
2023/01/18 10:15:25;;;;;;;7.60;2.78;;;3.20;99.90;;;;;;4994409;28;20477;-74
2023/01/18 10:17:55;;;;;;;2.83;1.30;;;3.40;99.90;;;;;;5002592;28;20691;-75
2023/01/18 10:20:56;;;;;;;1.50;1.23;;;3.50;99.90;;;;;;5011796;28;20457;-74
2023/01/18 10:23:30;;;;;;;1.88;1.13;;;3.60;99.90;;;;;;5002890;28;20026;-74
2023/01/18 10:26:08;;;;;;;0.90;0.73;;;3.60;99.90;;;;;;5025178;28;20034;-75
2023/01/18 10:28:50;;;;;;;1.08;0.90;;;3.60;99.90;;;;;;5011845;28;20065;-75
2023/01/18 10:31:21;;;;;;;2.63;1.20;;;3.50;99.90;;;;;;5011886;28;20113;-76
2023/01/18 10:33:54;;;;;;;1.30;1.20;;;3.60;99.90;;;;;;5012151;28;20038;-75
2023/01/18 10:36:38;;;;;;;3.95;1.27;;;3.60;99.90;;;;;;5024740;28;20044;-76
2023/01/18 10:39:21;;;;;;;2.40;1.08;;;3.60;99.90;;;;;;5023721;28;20076;-77
2023/01/18 10:41:48;;;;;;;2.22;1.13;;;3.70;99.90;;;;;;5021313;28;20493;-77
2023/01/18 10:44:13;;;;;;;1.38;0.57;;;3.70;99.90;;;;;;5026788;28;20036;-77
2023/01/18 10:46:39;;;;;;;6.03;1.48;;;3.80;99.90;;;;;;5010958;28;20034;-78
2023/01/18 10:49:07;;;;;;;2.45;1.15;;;3.80;99.90;;;;;;5011929;28;20049;-76
2023/01/18 10:51:35;;;;;;;3.33;2.42;;;4.40;99.90;;;;;;5009832;28;20519;-77
2023/01/18 10:54:30;;;;;;;1.80;0.77;;;5.00;99.90;;;;;;5025137;28;20038;-78
2023/01/18 10:57:04;;;;;;;0.98;0.80;;;5.20;99.90;;;;;;4992028;28;20042;-83
2023/01/18 10:59:37;;;;;;;6.00;1.98;;;5.40;99.90;;;;;;5011419;28;20466;-75
2023/01/18 11:02:04;;;;;;;3.70;0.98;;;5.90;99.90;;;;;;5017810;28;20025;-75
2023/01/18 11:04:32;;;;;;;2.83;0.82;;;6.30;99.90;;;;;;5015132;28;20046;-78
2023/01/18 11:07:01;;;;;;;2.65;1.10;;;6.50;99.20;;;;;;5019748;28;20112;-74
2023/01/18 11:09:48;;;;;;;1.90;1.15;;;7.00;98.40;;;;;;5026280;28;20038;-71
2023/01/18 11:12:43;;;;;;;2.42;1.42;;;7.30;97.80;;;;;;5018079;28;20486;-71
2023/01/18 11:15:14;;;;;;;1.85;0.82;;;7.70;97.50;;;;;;5023767;28;20093;-70
2023/01/18 11:17:53;;;;;;;1.55;0.82;;;7.60;95.80;;;;;;5010686;28;20617;-73
2023/01/18 11:20:28;;;;;;;4.63;1.17;;;7.40;96.20;;;;;;5006010;28;20045;-71
2023/01/18 11:23:02;;;;;;;1.73;0.77;;;7.30;96.80;;;;;;5010925;28;20050;-71
2023/01/18 11:25:39;;;;;;;2.83;1.45;;;7.10;97.30;;;;;;5020688;28;20104;-70
2023/01/18 11:28:26;;;;;;;1.10;0.77;;;7.20;96.50;;;;;;5016984;28;20056;-69
2023/01/18 11:31:08;;;;;;;2.88;1.60;;;7.40;96.20;;;;;;5011264;28;20034;-70
2023/01/18 11:33:39;;;;;;;4.15;1.58;;;7.50;96.00;;;;;;5007595;28;20034;-71
2023/01/18 11:36:05;;;;;;;1.77;1.38;;;7.60;95.80;;;;;;5007011;28;20036;-70
2023/01/18 11:38:33;;;;;;;1.85;0.90;;;7.50;95.30;;;;;;4999519;28;20041;-71
2023/01/18 11:41:18;;;;;;;0.90;0.60;;;7.30;95.60;;;;;;5004103;28;20022;-72
2023/01/18 11:44:10;;;;;;;2.38;1.38;;;7.10;95.70;;;;;;5001804;28;20058;-72
2023/01/18 11:46:45;;;;;;;4.75;1.13;;;7.40;95.10;;;;;;5007246;28;20113;-72
2023/01/18 11:49:39;;;;;;;5.97;0.95;;;7.40;95.10;;;;;;4999959;28;20041;-72
2023/01/18 11:52:45;;;;;;;3.38;1.52;;;7.50;95.00;;;;;;4988915;28;20053;-72
2023/01/18 11:55:55;;;;;;;3.88;1.40;;;7.80;93.10;;;;;;5009914;28;20061;-72
2023/01/18 11:58:27;;;;;;;2.80;1.42;;;8.40;92.60;;;;;;4991224;28;20042;-72
2023/01/18 12:01:30;;;;;;;0.93;0.70;;;8.90;90.20;;;;;;5018122;28;20381;-72
2023/01/18 12:04:13;;;;;;;4.22;1.13;;;8.90;90.00;;;;;;5009728;28;20065;-72
2023/01/18 12:07:20;;;;;;;1.95;0.88;;;9.40;88.00;;;;;;5010056;28;20041;-71
2023/01/18 12:09:55;;;;;;;2.35;1.35;;;9.50;87.00;;;;;;5006288;28;20425;-72
2023/01/18 12:12:42;;;;;;;3.53;1.33;;;10.20;85.10;;;;;;4991914;28;20125;-71
2023/01/18 12:15:27;;;;;;;2.35;1.02;;;10.70;81.50;;;;;;5000736;28;20545;-72
2023/01/18 12:18:15;;;;;;;1.90;1.05;;;10.40;81.30;;;;;;5018849;28;20048;-72
2023/01/18 12:21:31;;;;;;;3.65;1.23;;;11.30;78.80;;;;;;5009796;28;20038;-72
2023/01/18 12:24:24;;;;;;;2.53;1.58;;;11.00;79.10;;;;;;5017705;28;20048;-72
2023/01/18 12:26:54;;;;;;;4.55;1.42;;;11.70;78.70;;;;;;5010079;28;20034;-71
2023/01/18 12:29:59;;;;;;;7.63;1.55;;;11.60;78.00;;;;;;5018547;28;20037;-72
2023/01/18 12:32:53;;;;;;;2.15;1.20;;;11.50;77.10;;;;;;4992606;28;20030;-75
2023/01/18 12:35:22;;;;;;;4.43;1.73;;;11.20;78.60;;;;;;4977729;28;20037;-72
2023/01/18 12:38:06;;;;;;;6.80;1.83;;;11.60;78.30;;;;;;5009055;28;20033;-72
2023/01/18 12:40:46;;;;;;;7.65;1.85;;;10.80;78.90;;;;;;4994999;28;20416;-73
2023/01/18 12:43:32;;;;;;;9.73;1.67;;;10.50;80.30;;;;;;5008103;28;20029;-74
2023/01/18 12:46:13;;;;;;;2.90;1.55;;;10.10;81.90;;;;;;5017317;28;20072;-73
2023/01/18 12:48:50;;;;;;;10.52;1.35;;;9.70;81.80;;;;;;5022294;28;20200;-72
2023/01/18 12:51:23;;;;;;;3.97;1.30;;;9.90;83.30;;;;;;5011599;28;20030;-72
2023/01/18 12:53:58;;;;;;;2.90;1.52;;;9.70;83.80;;;;;;5004961;28;20034;-73
2023/01/18 12:56:31;;;;;;;4.47;1.42;;;10.00;83.30;;;;;;5011814;28;20061;-73
2023/01/18 12:59:04;;;;;;;4.35;2.33;;;10.40;81.70;;;;;;5013404;28;20102;-71
2023/01/18 13:01:41;;;;;;;6.93;2.38;;;10.20;81.80;;;;;;5015052;28;20037;-73
2023/01/18 13:04:30;;;;;;;8.05;2.40;;;10.10;81.90;;;;;;5004234;28;20030;-72
2023/01/18 13:07:06;;;;;;;2.90;1.95;;;10.10;82.70;;;;;;5020065;28;20034;-71
2023/01/18 13:09:39;;;;;;;6.50;2.58;;;10.20;82.40;;;;;;5014922;28;20030;-72
2023/01/18 13:12:05;;;;;;;3.95;1.65;;;10.20;83.90;;;;;;5010863;28;20076;-72
2023/01/18 13:15:03;;;;;;;3.03;1.60;;;10.60;84.10;;;;;;5012921;28;20502;-71
2023/01/18 13:17:51;;;;;;;6.15;1.83;;;10.40;81.20;;;;;;5023110;28;20242;-70
2023/01/18 13:20:28;;;;;;;6.78;2.20;;;10.40;81.50;;;;;;4992336;28;20486;-70
2023/01/18 13:23:35;;;;;;;9.40;1.75;;;10.00;82.50;;;;;;5019248;28;20034;-70
2023/01/18 13:26:16;;;;;;;5.15;2.38;;;8.60;85.50;;;;;;4998750;28;20069;-71
2023/01/18 13:28:42;;;;;;;11.43;2.55;;;7.80;90.30;;;;;;5011118;28;20117;-70
2023/01/18 13:31:08;;;;;;;7.10;2.03;;;8.10;90.40;;;;;;5012614;28;20025;-72
2023/01/18 13:33:46;;;;;;;9.15;2.47;;;8.20;89.20;;;;;;5019651;28;20068;-70
2023/01/18 13:36:17;;;;;;;3.40;1.92;;;7.80;90.60;;;;;;4993130;28;20112;-70
2023/01/18 13:38:54;;;;;;;5.18;2.45;;;7.60;91.30;;;;;;5019710;28;20490;-71
2023/01/18 13:41:27;;;;;;;4.75;2.60;;;7.30;91.90;;;;;;5024984;28;20057;-71
2023/01/18 13:44:05;;;;;;;5.65;2.83;;;7.10;92.10;;;;;;5010902;28;20112;-71
2023/01/18 13:46:37;;;;;;;5.35;2.45;;;6.60;93.70;;;;;;5024299;28;20497;-70
2023/01/18 13:49:44;;;;;;;9.27;2.70;;;6.50;94.40;;;;;;5011670;28;20501;-71
2023/01/18 13:52:34;;;;;;;5.47;2.08;;;6.30;94.60;;;;;;5012010;28;20034;-76
2023/01/18 13:55:06;;;;;;;11.10;3.10;;;6.10;94.30;;;;;;5007327;28;20041;-76
2023/01/18 13:57:34;;;;;;;6.07;1.80;;;6.10;94.40;;;;;;5017399;28;20029;-70
2023/01/18 14:00:01;;;;;;;8.73;2.47;;;6.10;94.10;;;;;;5011487;28;20038;-70
2023/01/18 14:02:42;;;;;;;4.00;2.47;;;6.00;94.70;;;;;;5019448;28;20053;-70
2023/01/18 14:05:25;;;;;;;4.32;2.63;;;6.30;95.20;;;;;;5012046;28;20033;-71